NWK1672 YPPH-YMHB
Flight info
| Callsign | NWK1672 |
|---|---|
| Flight time | 3h 28m |
| Altitude | 37000 |
| Route | DCT MEMUP Y53 VIMUS DCT 3600S12730E DCT VIBUX DCT 3810S13230E 39S135E 40S138E 41S142E DCT URBEN Y557 MORGO DCT |
| Aircraft | A319/M-SDE3FGHIRWYZ/LB1 |
Departure
| Time | 2026-04-30 02:26 |
|---|---|
| Airport | Perth International Airport (YPPH) |
Arrival
| Time | 2026-04-30 05:54 |
|---|---|
| Airport | Hobart International Airport (YMHB) |
| Time | Latitude | Longitude | Altitude | Speed | Heading |
|---|---|---|---|---|---|
| 2026-04-30 02:08 | -31.93380 | 115.96182 | 68 ft | 0 kts | 290° |
| 2026-04-30 02:20 | -31.93385 | 115.96200 | 62 ft | 4 kts | 290° |
| 2026-04-30 02:20 | -31.93395 | 115.96229 | 58 ft | 4 kts | 293° |
| 2026-04-30 02:21 | -31.93407 | 115.96258 | 59 ft | 4 kts | 301° |
| 2026-04-30 02:21 | -31.93422 | 115.96280 | 61 ft | 4 kts | 343° |
| 2026-04-30 02:21 | -31.93431 | 115.96282 | 60 ft | 0 kts | 22° |
| 2026-04-30 02:23 | -31.93416 | 115.96290 | 60 ft | 8 kts | 22° |
| 2026-04-30 02:23 | -31.93347 | 115.96317 | 64 ft | 13 kts | 12° |
| 2026-04-30 02:23 | -31.93249 | 115.96330 | 66 ft | 15 kts | 359° |
| 2026-04-30 02:23 | -31.93138 | 115.96356 | 63 ft | 18 kts | 33° |
| 2026-04-30 02:24 | -31.93039 | 115.96479 | 66 ft | 22 kts | 49° |
| 2026-04-30 02:24 | -31.92931 | 115.96591 | 68 ft | 14 kts | 18° |
| 2026-04-30 02:24 | -31.92843 | 115.96653 | 68 ft | 18 kts | 77° |
| 2026-04-30 02:24 | -31.92859 | 115.96750 | 65 ft | 13 kts | 104° |
| 2026-04-30 02:25 | -31.92898 | 115.96839 | 64 ft | 12 kts | 197° |
| 2026-04-30 02:25 | -31.93109 | 115.96774 | 60 ft | 69 kts | 194° |
| 2026-04-30 02:25 | -31.93850 | 115.96557 | 71 ft | 147 kts | 194° |
| 2026-04-30 02:25 | -31.94949 | 115.96250 | 514 ft | 166 kts | 192° |
| 2026-04-30 02:26 | -31.96081 | 115.95946 | 1281 ft | 166 kts | 194° |
| 2026-04-30 02:26 | -31.97194 | 115.95747 | 2024 ft | 165 kts | 176° |
| 2026-04-30 02:26 | -31.98270 | 115.96264 | 2334 ft | 187 kts | 141° |
| 2026-04-30 02:26 | -31.98972 | 115.97605 | 2536 ft | 216 kts | 116° |
| 2026-04-30 02:27 | -31.99622 | 115.99325 | 2937 ft | 241 kts | 116° |
| 2026-04-30 02:27 | -32.00136 | 116.00673 | 3275 ft | 258 kts | 116° |
| 2026-04-30 02:27 | -32.00829 | 116.02485 | 3678 ft | 280 kts | 116° |
| 2026-04-30 02:27 | -32.01662 | 116.04655 | 4164 ft | 301 kts | 116° |
| 2026-04-30 02:28 | -32.02542 | 116.06948 | 4912 ft | 310 kts | 117° |
| 2026-04-30 02:28 | -32.03442 | 116.09294 | 5718 ft | 316 kts | 116° |
| 2026-04-30 02:28 | -32.04358 | 116.11675 | 6521 ft | 322 kts | 116° |
| 2026-04-30 02:28 | -32.05293 | 116.14100 | 7260 ft | 328 kts | 116° |
| 2026-04-30 02:29 | -32.06244 | 116.16567 | 7989 ft | 334 kts | 116° |
| 2026-04-30 02:29 | -32.07212 | 116.19082 | 8724 ft | 339 kts | 116° |
| 2026-04-30 02:29 | -32.08193 | 116.21632 | 9449 ft | 345 kts | 116° |
| 2026-04-30 02:29 | -32.09192 | 116.24234 | 10132 ft | 351 kts | 115° |
| 2026-04-30 02:30 | -32.10205 | 116.26877 | 10783 ft | 356 kts | 115° |
| 2026-04-30 02:30 | -32.11226 | 116.29555 | 11446 ft | 360 kts | 116° |
| 2026-04-30 02:30 | -32.12261 | 116.32270 | 12140 ft | 365 kts | 116° |
| 2026-04-30 02:30 | -32.13309 | 116.35013 | 12806 ft | 369 kts | 116° |
| 2026-04-30 02:31 | -32.14371 | 116.37784 | 13468 ft | 372 kts | 116° |
| 2026-04-30 02:31 | -32.15444 | 116.40581 | 14085 ft | 376 kts | 116° |
| 2026-04-30 02:31 | -32.16529 | 116.43416 | 14663 ft | 380 kts | 116° |
| 2026-04-30 02:31 | -32.17621 | 116.46277 | 15237 ft | 384 kts | 116° |
| 2026-04-30 02:32 | -32.18709 | 116.49132 | 15793 ft | 388 kts | 116° |
| 2026-04-30 02:32 | -32.19825 | 116.52056 | 16358 ft | 392 kts | 116° |
| 2026-04-30 02:32 | -32.20948 | 116.55002 | 16918 ft | 396 kts | 116° |
| 2026-04-30 02:32 | -32.22084 | 116.57985 | 17474 ft | 400 kts | 116° |
| 2026-04-30 02:33 | -32.23231 | 116.61000 | 18032 ft | 404 kts | 116° |
| 2026-04-30 02:33 | -32.24385 | 116.64040 | 18559 ft | 408 kts | 116° |
| 2026-04-30 02:33 | -32.25551 | 116.67115 | 19048 ft | 412 kts | 116° |
| 2026-04-30 02:33 | -32.26726 | 116.70216 | 19545 ft | 415 kts | 116° |
| 2026-04-30 02:34 | -32.27909 | 116.73338 | 20051 ft | 418 kts | 116° |
| 2026-04-30 02:34 | -32.29099 | 116.76481 | 20558 ft | 421 kts | 116° |
| 2026-04-30 02:34 | -32.30300 | 116.79655 | 21051 ft | 424 kts | 116° |
| 2026-04-30 02:34 | -32.31508 | 116.82846 | 21540 ft | 428 kts | 116° |
| 2026-04-30 02:35 | -32.32197 | 116.84668 | 21790 ft | 428 kts | 116° |
| 2026-04-30 02:35 | -32.33414 | 116.87896 | 22092 ft | 432 kts | 116° |
| 2026-04-30 02:35 | -32.34639 | 116.91153 | 22559 ft | 435 kts | 116° |
| 2026-04-30 02:35 | -32.34793 | 116.91562 | 22612 ft | 435 kts | 116° |
| 2026-04-30 02:36 | -32.35683 | 116.93930 | 22951 ft | 438 kts | 116° |
| 2026-04-30 02:36 | -32.36839 | 116.97006 | 23360 ft | 441 kts | 116° |
| 2026-04-30 02:36 | -32.38088 | 117.00329 | 23774 ft | 444 kts | 116° |
| 2026-04-30 02:37 | -32.39346 | 117.03678 | 24131 ft | 447 kts | 116° |
| 2026-04-30 02:37 | -32.40593 | 117.07007 | 24497 ft | 450 kts | 116° |
| 2026-04-30 02:37 | -32.41862 | 117.10404 | 24857 ft | 453 kts | 116° |
| 2026-04-30 02:37 | -32.43138 | 117.13823 | 25215 ft | 456 kts | 116° |
| 2026-04-30 02:38 | -32.44421 | 117.17265 | 25566 ft | 459 kts | 116° |
| 2026-04-30 02:38 | -32.45716 | 117.20734 | 25913 ft | 462 kts | 116° |
| 2026-04-30 02:38 | -32.47017 | 117.24219 | 26263 ft | 464 kts | 116° |
| 2026-04-30 02:38 | -32.48328 | 117.27728 | 26601 ft | 467 kts | 116° |
| 2026-04-30 02:39 | -32.49648 | 117.31262 | 26942 ft | 470 kts | 116° |
| 2026-04-30 02:39 | -32.50973 | 117.34816 | 27271 ft | 473 kts | 115° |
| 2026-04-30 02:39 | -32.52302 | 117.38386 | 27611 ft | 476 kts | 115° |
| 2026-04-30 02:39 | -32.53636 | 117.41988 | 27942 ft | 479 kts | 115° |
| 2026-04-30 02:40 | -32.54976 | 117.45616 | 28270 ft | 481 kts | 115° |
| 2026-04-30 02:40 | -32.56323 | 117.49257 | 28602 ft | 484 kts | 115° |
| 2026-04-30 02:40 | -32.57680 | 117.52923 | 28919 ft | 487 kts | 115° |
| 2026-04-30 02:40 | -32.59031 | 117.56574 | 29228 ft | 490 kts | 115° |
| 2026-04-30 02:41 | -32.60402 | 117.60285 | 29531 ft | 492 kts | 115° |
| 2026-04-30 02:41 | -32.61776 | 117.64014 | 29836 ft | 495 kts | 115° |
| 2026-04-30 02:41 | -32.63155 | 117.67768 | 30143 ft | 498 kts | 115° |
| 2026-04-30 02:41 | -32.64542 | 117.71543 | 30382 ft | 500 kts | 115° |
| 2026-04-30 02:42 | -32.65940 | 117.75339 | 30591 ft | 504 kts | 115° |
| 2026-04-30 02:42 | -32.67350 | 117.79157 | 30811 ft | 507 kts | 115° |
| 2026-04-30 02:42 | -32.68150 | 117.81326 | 30924 ft | 509 kts | 115° |
| 2026-04-30 02:42 | -32.69355 | 117.84602 | 31100 ft | 511 kts | 115° |
| 2026-04-30 02:43 | -32.70780 | 117.88487 | 31293 ft | 515 kts | 115° |
| 2026-04-30 02:43 | -32.71596 | 117.90718 | 31445 ft | 515 kts | 115° |
| 2026-04-30 02:43 | -32.72941 | 117.94406 | 31723 ft | 517 kts | 115° |
| 2026-04-30 02:43 | -32.74370 | 117.98329 | 31982 ft | 518 kts | 115° |
| 2026-04-30 02:44 | -32.75803 | 118.02262 | 32259 ft | 520 kts | 115° |
| 2026-04-30 02:44 | -32.77240 | 118.06214 | 32529 ft | 521 kts | 115° |
| 2026-04-30 02:44 | -32.78678 | 118.10171 | 32796 ft | 523 kts | 114° |
| 2026-04-30 02:44 | -32.80124 | 118.14147 | 33068 ft | 524 kts | 114° |
| 2026-04-30 02:45 | -32.81576 | 118.18135 | 33340 ft | 526 kts | 114° |
| 2026-04-30 02:45 | -32.83026 | 118.22135 | 33606 ft | 527 kts | 114° |
| 2026-04-30 02:45 | -32.84474 | 118.26145 | 33881 ft | 529 kts | 114° |
| 2026-04-30 02:45 | -32.85929 | 118.30180 | 34142 ft | 531 kts | 114° |
| 2026-04-30 02:46 | -32.87378 | 118.34202 | 34400 ft | 531 kts | 114° |
| 2026-04-30 02:46 | -32.88837 | 118.38249 | 34683 ft | 531 kts | 114° |
| 2026-04-30 02:46 | -32.90294 | 118.42295 | 34965 ft | 531 kts | 114° |
| 2026-04-30 02:46 | -32.91747 | 118.46333 | 35244 ft | 531 kts | 114° |
| 2026-04-30 02:47 | -32.93197 | 118.50366 | 35522 ft | 530 kts | 114° |
| 2026-04-30 02:47 | -32.94628 | 118.54350 | 35783 ft | 530 kts | 115° |
| 2026-04-30 02:47 | -32.96073 | 118.58377 | 36057 ft | 529 kts | 115° |
| 2026-04-30 02:47 | -32.97518 | 118.62411 | 36330 ft | 529 kts | 115° |
| 2026-04-30 02:48 | -32.98958 | 118.66437 | 36592 ft | 529 kts | 115° |
| 2026-04-30 02:48 | -33.00398 | 118.70469 | 36839 ft | 528 kts | 115° |
| 2026-04-30 02:48 | -33.01832 | 118.74497 | 37019 ft | 529 kts | 115° |
| 2026-04-30 02:49 | -33.04696 | 118.82558 | 37058 ft | 527 kts | 115° |
| 2026-04-30 02:49 | -33.07555 | 118.90609 | 37053 ft | 527 kts | 115° |
| 2026-04-30 02:50 | -33.10412 | 118.98662 | 37048 ft | 527 kts | 115° |
| 2026-04-30 02:50 | -33.13263 | 119.06719 | 37050 ft | 527 kts | 115° |
| 2026-04-30 02:51 | -33.16110 | 119.14789 | 37046 ft | 527 kts | 114° |
| 2026-04-30 02:51 | -33.18952 | 119.22861 | 37040 ft | 527 kts | 114° |
| 2026-04-30 02:52 | -33.21788 | 119.30938 | 37038 ft | 527 kts | 114° |
| 2026-04-30 02:52 | -33.24594 | 119.38974 | 37033 ft | 528 kts | 114° |
| 2026-04-30 02:53 | -33.27418 | 119.47063 | 37030 ft | 528 kts | 114° |
| 2026-04-30 02:53 | -33.30244 | 119.55158 | 37037 ft | 528 kts | 114° |
| 2026-04-30 02:54 | -33.33060 | 119.63266 | 37032 ft | 528 kts | 114° |
| 2026-04-30 02:54 | -33.35870 | 119.71386 | 37033 ft | 528 kts | 114° |
| 2026-04-30 02:55 | -33.38678 | 119.79506 | 37023 ft | 528 kts | 114° |
| 2026-04-30 02:55 | -33.41484 | 119.87637 | 37026 ft | 528 kts | 114° |
| 2026-04-30 02:56 | -33.44283 | 119.95774 | 37024 ft | 529 kts | 114° |
| 2026-04-30 02:56 | -33.47074 | 120.03918 | 37024 ft | 529 kts | 114° |
| 2026-04-30 02:57 | -33.49865 | 120.12084 | 37021 ft | 529 kts | 114° |
| 2026-04-30 02:57 | -33.52631 | 120.20185 | 37019 ft | 529 kts | 114° |
| 2026-04-30 02:58 | -33.55417 | 120.28355 | 37020 ft | 529 kts | 114° |
| 2026-04-30 02:58 | -33.58191 | 120.36536 | 37019 ft | 529 kts | 113° |
| 2026-04-30 02:59 | -33.60952 | 120.44719 | 37015 ft | 529 kts | 113° |
| 2026-04-30 02:59 | -33.63718 | 120.52904 | 37018 ft | 530 kts | 114° |
| 2026-04-30 03:00 | -33.66486 | 120.61104 | 37018 ft | 530 kts | 113° |
| 2026-04-30 03:00 | -33.69243 | 120.69312 | 37019 ft | 530 kts | 113° |
| 2026-04-30 03:01 | -33.72001 | 120.77529 | 37021 ft | 530 kts | 113° |
| 2026-04-30 03:01 | -33.74753 | 120.85753 | 37019 ft | 531 kts | 113° |
| 2026-04-30 03:02 | -33.77514 | 120.93976 | 37020 ft | 531 kts | 114° |
| 2026-04-30 03:02 | -33.80288 | 121.02132 | 37022 ft | 531 kts | 114° |
| 2026-04-30 03:03 | -33.83089 | 121.10348 | 37019 ft | 531 kts | 114° |
| 2026-04-30 03:03 | -33.87262 | 121.22689 | 37015 ft | 530 kts | 113° |
| 2026-04-30 03:04 | -33.90027 | 121.30922 | 37011 ft | 531 kts | 113° |
| 2026-04-30 03:04 | -33.92784 | 121.39165 | 37003 ft | 531 kts | 113° |
| 2026-04-30 03:05 | -33.95547 | 121.47413 | 37005 ft | 531 kts | 113° |
| 2026-04-30 03:05 | -33.98316 | 121.55667 | 37013 ft | 531 kts | 113° |
| 2026-04-30 03:06 | -34.01064 | 121.63938 | 37008 ft | 532 kts | 113° |
| 2026-04-30 03:06 | -34.03785 | 121.72159 | 37015 ft | 532 kts | 113° |
| 2026-04-30 03:07 | -34.06526 | 121.80437 | 37009 ft | 531 kts | 113° |
| 2026-04-30 03:07 | -34.09264 | 121.88707 | 37005 ft | 531 kts | 113° |
| 2026-04-30 03:08 | -34.12002 | 121.96995 | 37003 ft | 531 kts | 112° |
| 2026-04-30 03:08 | -34.14725 | 122.05286 | 37009 ft | 532 kts | 112° |
| 2026-04-30 03:09 | -34.17447 | 122.13600 | 37010 ft | 532 kts | 112° |
| 2026-04-30 03:09 | -34.20164 | 122.21910 | 37012 ft | 532 kts | 112° |
| 2026-04-30 03:10 | -34.22415 | 122.28833 | 37009 ft | 532 kts | 112° |
| 2026-04-30 03:10 | -34.25118 | 122.37157 | 37009 ft | 532 kts | 112° |
| 2026-04-30 03:11 | -34.27827 | 122.45488 | 37010 ft | 532 kts | 112° |
| 2026-04-30 03:11 | -34.30528 | 122.53821 | 37005 ft | 532 kts | 112° |
| 2026-04-30 03:12 | -34.33216 | 122.62171 | 37004 ft | 533 kts | 112° |
| 2026-04-30 03:12 | -34.36334 | 122.71876 | 37004 ft | 533 kts | 112° |
| 2026-04-30 03:13 | -34.38565 | 122.78828 | 37006 ft | 533 kts | 112° |
| 2026-04-30 03:13 | -34.41249 | 122.87201 | 37008 ft | 533 kts | 112° |
| 2026-04-30 03:14 | -34.43916 | 122.95580 | 37006 ft | 533 kts | 112° |
| 2026-04-30 03:14 | -34.46582 | 123.03969 | 37006 ft | 533 kts | 112° |
| 2026-04-30 03:15 | -34.49242 | 123.12349 | 37004 ft | 533 kts | 111° |
| 2026-04-30 03:15 | -34.51897 | 123.20748 | 37009 ft | 533 kts | 111° |
| 2026-04-30 03:16 | -34.54544 | 123.29153 | 37011 ft | 533 kts | 111° |
| 2026-04-30 03:16 | -34.57188 | 123.37557 | 37016 ft | 533 kts | 111° |
| 2026-04-30 03:17 | -34.59818 | 123.45911 | 37015 ft | 533 kts | 111° |
| 2026-04-30 03:17 | -34.62452 | 123.54325 | 37013 ft | 533 kts | 111° |
| 2026-04-30 03:18 | -34.65074 | 123.62753 | 37013 ft | 533 kts | 111° |
| 2026-04-30 03:18 | -34.67698 | 123.71178 | 37013 ft | 533 kts | 111° |
| 2026-04-30 03:19 | -34.70309 | 123.79609 | 37009 ft | 533 kts | 111° |
| 2026-04-30 03:19 | -34.72913 | 123.88040 | 37011 ft | 533 kts | 111° |
| 2026-04-30 03:20 | -34.75523 | 123.96484 | 37010 ft | 533 kts | 111° |
| 2026-04-30 03:20 | -34.78122 | 124.04921 | 37003 ft | 533 kts | 111° |
| 2026-04-30 03:21 | -34.80719 | 124.13370 | 37004 ft | 533 kts | 111° |
| 2026-04-30 03:21 | -34.83300 | 124.21836 | 37004 ft | 533 kts | 110° |
| 2026-04-30 03:22 | -34.85870 | 124.30289 | 37000 ft | 532 kts | 110° |
| 2026-04-30 03:22 | -34.88441 | 124.38747 | 36997 ft | 532 kts | 110° |
| 2026-04-30 03:23 | -34.90994 | 124.47146 | 36996 ft | 532 kts | 110° |
| 2026-04-30 03:23 | -34.93558 | 124.55612 | 36994 ft | 532 kts | 110° |
| 2026-04-30 03:24 | -34.96109 | 124.64084 | 36992 ft | 532 kts | 110° |
| 2026-04-30 03:24 | -34.98652 | 124.72556 | 36989 ft | 532 kts | 110° |
| 2026-04-30 03:25 | -35.01194 | 124.81032 | 36988 ft | 532 kts | 110° |
| 2026-04-30 03:25 | -35.03725 | 124.89514 | 36987 ft | 532 kts | 110° |
| 2026-04-30 03:26 | -35.06250 | 124.98006 | 36988 ft | 532 kts | 110° |
| 2026-04-30 03:26 | -35.09256 | 125.06242 | 36985 ft | 531 kts | 116° |
| 2026-04-30 03:27 | -35.12405 | 125.14401 | 36985 ft | 531 kts | 116° |
| 2026-04-30 03:27 | -35.15532 | 125.22521 | 36986 ft | 531 kts | 116° |
| 2026-04-30 03:28 | -35.18677 | 125.30696 | 36990 ft | 532 kts | 116° |
| 2026-04-30 03:28 | -35.21816 | 125.38877 | 36991 ft | 532 kts | 116° |
| 2026-04-30 03:29 | -35.24949 | 125.47075 | 36990 ft | 531 kts | 116° |
| 2026-04-30 03:29 | -35.28070 | 125.55266 | 36985 ft | 531 kts | 116° |
| 2026-04-30 03:30 | -35.31187 | 125.63457 | 36984 ft | 531 kts | 116° |
| 2026-04-30 03:30 | -35.34302 | 125.71659 | 36990 ft | 531 kts | 116° |
| 2026-04-30 03:31 | -35.37398 | 125.79865 | 36983 ft | 531 kts | 116° |
| 2026-04-30 03:31 | -35.40502 | 125.88083 | 36986 ft | 531 kts | 116° |
| 2026-04-30 03:32 | -35.43593 | 125.96303 | 36982 ft | 531 kts | 116° |
| 2026-04-30 03:32 | -35.46685 | 126.04519 | 36984 ft | 530 kts | 116° |
| 2026-04-30 03:33 | -35.49749 | 126.12680 | 36981 ft | 530 kts | 115° |
| 2026-04-30 03:33 | -35.52820 | 126.20909 | 36983 ft | 530 kts | 115° |
| 2026-04-30 03:34 | -35.55881 | 126.29144 | 36981 ft | 530 kts | 115° |
| 2026-04-30 03:34 | -35.58937 | 126.37374 | 36979 ft | 529 kts | 115° |
| 2026-04-30 03:35 | -35.61992 | 126.45604 | 36976 ft | 529 kts | 115° |
| 2026-04-30 03:35 | -35.65035 | 126.53844 | 36974 ft | 529 kts | 115° |
| 2026-04-30 03:36 | -35.68071 | 126.62077 | 36974 ft | 529 kts | 115° |
| 2026-04-30 03:36 | -35.71102 | 126.70312 | 36970 ft | 528 kts | 115° |
| 2026-04-30 03:37 | -35.74129 | 126.78553 | 36968 ft | 528 kts | 115° |
| 2026-04-30 03:37 | -35.77134 | 126.86745 | 36972 ft | 528 kts | 115° |
| 2026-04-30 03:38 | -35.80138 | 126.95001 | 36971 ft | 528 kts | 115° |
| 2026-04-30 03:38 | -35.83138 | 127.03253 | 36966 ft | 528 kts | 115° |
| 2026-04-30 03:39 | -35.86139 | 127.11501 | 36964 ft | 527 kts | 114° |
| 2026-04-30 03:39 | -35.89131 | 127.19757 | 36968 ft | 527 kts | 114° |
| 2026-04-30 03:40 | -35.92115 | 127.28017 | 36962 ft | 527 kts | 114° |
| 2026-04-30 03:40 | -35.95088 | 127.36282 | 36962 ft | 527 kts | 114° |
| 2026-04-30 03:41 | -35.98059 | 127.44553 | 36963 ft | 527 kts | 114° |
| 2026-04-30 03:41 | -36.01284 | 127.52659 | 36963 ft | 525 kts | 122° |
| 2026-04-30 03:42 | -36.05038 | 127.60401 | 36964 ft | 525 kts | 122° |
| 2026-04-30 03:42 | -36.08775 | 127.68104 | 36966 ft | 525 kts | 122° |
| 2026-04-30 03:43 | -36.12523 | 127.75851 | 36966 ft | 525 kts | 122° |
| 2026-04-30 03:43 | -36.16258 | 127.83616 | 36961 ft | 525 kts | 122° |
| 2026-04-30 03:44 | -36.19982 | 127.91388 | 36957 ft | 524 kts | 122° |
| 2026-04-30 03:44 | -36.23705 | 127.99158 | 36960 ft | 524 kts | 122° |
| 2026-04-30 03:45 | -36.27428 | 128.06932 | 36958 ft | 524 kts | 122° |
| 2026-04-30 03:45 | -36.31145 | 128.14700 | 36952 ft | 523 kts | 122° |
| 2026-04-30 03:46 | -36.34844 | 128.22473 | 36946 ft | 523 kts | 121° |
| 2026-04-30 03:46 | -36.38504 | 128.30208 | 36949 ft | 523 kts | 121° |
| 2026-04-30 03:47 | -36.42190 | 128.37997 | 36947 ft | 523 kts | 121° |
| 2026-04-30 03:47 | -36.45868 | 128.45785 | 36948 ft | 523 kts | 121° |
| 2026-04-30 03:48 | -36.49550 | 128.53585 | 36946 ft | 523 kts | 121° |
| 2026-04-30 03:48 | -36.53225 | 128.61384 | 36946 ft | 523 kts | 121° |
| 2026-04-30 03:49 | -36.56895 | 128.69197 | 36948 ft | 523 kts | 121° |
| 2026-04-30 03:49 | -36.60552 | 128.77011 | 36948 ft | 522 kts | 121° |
| 2026-04-30 03:50 | -36.64202 | 128.84823 | 36941 ft | 522 kts | 121° |
| 2026-04-30 03:50 | -36.67841 | 128.92647 | 36935 ft | 522 kts | 121° |
| 2026-04-30 03:51 | -36.71477 | 129.00478 | 36935 ft | 522 kts | 121° |
| 2026-04-30 03:51 | -36.75088 | 129.08259 | 36936 ft | 522 kts | 121° |
| 2026-04-30 03:52 | -36.78724 | 129.16100 | 36934 ft | 522 kts | 121° |
| 2026-04-30 03:52 | -36.82343 | 129.23950 | 36934 ft | 522 kts | 120° |
| 2026-04-30 03:53 | -36.85950 | 129.31806 | 36941 ft | 521 kts | 120° |
| 2026-04-30 03:53 | -36.89561 | 129.39660 | 36934 ft | 521 kts | 120° |
| 2026-04-30 03:54 | -36.93174 | 129.47512 | 36931 ft | 521 kts | 120° |
| 2026-04-30 03:54 | -36.96777 | 129.55381 | 36931 ft | 521 kts | 120° |
| 2026-04-30 03:55 | -37.00339 | 129.63204 | 36929 ft | 521 kts | 120° |
| 2026-04-30 03:55 | -37.03930 | 129.71093 | 36921 ft | 520 kts | 120° |
| 2026-04-30 03:56 | -37.07505 | 129.78967 | 36918 ft | 520 kts | 120° |
| 2026-04-30 03:56 | -37.11073 | 129.86850 | 36924 ft | 520 kts | 120° |
| 2026-04-30 03:57 | -37.14643 | 129.94740 | 36921 ft | 520 kts | 120° |
| 2026-04-30 03:57 | -37.18179 | 130.02662 | 36922 ft | 520 kts | 118° |
| 2026-04-30 03:58 | -37.21535 | 130.10696 | 36921 ft | 520 kts | 117° |
| 2026-04-30 03:58 | -37.24800 | 130.18789 | 36921 ft | 520 kts | 117° |
| 2026-04-30 03:59 | -37.27526 | 130.25515 | 36918 ft | 520 kts | 117° |
| 2026-04-30 03:59 | -37.31380 | 130.34898 | 36928 ft | 520 kts | 117° |
| 2026-04-30 04:00 | -37.34700 | 130.42957 | 36931 ft | 519 kts | 117° |
| 2026-04-30 04:00 | -37.37469 | 130.49717 | 36927 ft | 519 kts | 117° |
| 2026-04-30 04:01 | -37.40735 | 130.57734 | 36927 ft | 518 kts | 117° |
| 2026-04-30 04:01 | -37.44020 | 130.65802 | 36926 ft | 518 kts | 117° |
| 2026-04-30 04:02 | -37.47299 | 130.73885 | 36919 ft | 518 kts | 117° |
| 2026-04-30 04:02 | -37.50572 | 130.81962 | 36921 ft | 518 kts | 117° |
| 2026-04-30 04:03 | -37.53832 | 130.90050 | 36921 ft | 518 kts | 116° |
| 2026-04-30 04:03 | -37.57084 | 130.98149 | 36920 ft | 518 kts | 116° |
| 2026-04-30 04:04 | -37.60336 | 131.06253 | 36923 ft | 518 kts | 116° |
| 2026-04-30 04:04 | -37.63579 | 131.14340 | 36751 ft | 510 kts | 115° |
| 2026-04-30 04:05 | -37.65150 | 131.18271 | 36922 ft | 495 kts | 115° |
| 2026-04-30 04:05 | -37.66689 | 131.22124 | 36899 ft | 489 kts | 115° |
| 2026-04-30 04:05 | -37.69732 | 131.29753 | 36906 ft | 486 kts | 115° |
| 2026-04-30 04:06 | -37.72737 | 131.37327 | 36909 ft | 485 kts | 115° |
| 2026-04-30 04:06 | -37.75761 | 131.44949 | 36909 ft | 485 kts | 115° |
| 2026-04-30 04:07 | -37.78789 | 131.52582 | 36914 ft | 485 kts | 115° |
| 2026-04-30 04:08 | -37.83280 | 131.63968 | 37113 ft | 488 kts | 116° |
| 2026-04-30 04:08 | -37.84829 | 131.67905 | 36910 ft | 498 kts | 116° |
| 2026-04-30 04:08 | -37.86371 | 131.71840 | 36922 ft | 504 kts | 116° |
| 2026-04-30 04:09 | -37.89501 | 131.79842 | 36797 ft | 507 kts | 116° |
| 2026-04-30 04:09 | -37.92626 | 131.87819 | 36649 ft | 509 kts | 116° |
| 2026-04-30 04:10 | -37.95760 | 131.95845 | 36483 ft | 508 kts | 115° |
| 2026-04-30 04:10 | -37.98888 | 132.03872 | 36343 ft | 508 kts | 115° |
| 2026-04-30 04:11 | -38.02007 | 132.11907 | 36188 ft | 507 kts | 115° |
| 2026-04-30 04:11 | -38.05119 | 132.19943 | 35897 ft | 507 kts | 115° |
| 2026-04-30 04:12 | -38.08191 | 132.27927 | 35927 ft | 507 kts | 115° |
| 2026-04-30 04:12 | -38.11284 | 132.35968 | 35927 ft | 507 kts | 115° |
| 2026-04-30 04:13 | -38.14372 | 132.44009 | 35928 ft | 506 kts | 115° |
| 2026-04-30 04:13 | -38.17441 | 132.52058 | 35927 ft | 506 kts | 114° |
| 2026-04-30 04:14 | -38.20200 | 132.59844 | 35924 ft | 505 kts | 112° |
| 2026-04-30 04:14 | -38.22967 | 132.68046 | 35926 ft | 504 kts | 112° |
| 2026-04-30 04:15 | -38.25739 | 132.76227 | 35933 ft | 503 kts | 112° |
| 2026-04-30 04:15 | -38.28550 | 132.84384 | 35931 ft | 503 kts | 112° |
| 2026-04-30 04:16 | -38.31368 | 132.92526 | 35937 ft | 503 kts | 112° |
| 2026-04-30 04:16 | -38.34168 | 133.00680 | 35940 ft | 502 kts | 112° |
| 2026-04-30 04:17 | -38.36932 | 133.08785 | 35939 ft | 501 kts | 112° |
| 2026-04-30 04:17 | -38.39697 | 133.16934 | 35937 ft | 501 kts | 112° |
| 2026-04-30 04:18 | -38.42459 | 133.25088 | 35943 ft | 500 kts | 112° |
| 2026-04-30 04:18 | -38.45226 | 133.33231 | 35943 ft | 500 kts | 112° |
| 2026-04-30 04:19 | -38.47974 | 133.41371 | 35944 ft | 499 kts | 111° |
| 2026-04-30 04:19 | -38.50716 | 133.49503 | 35944 ft | 499 kts | 111° |
| 2026-04-30 04:20 | -38.53442 | 133.57633 | 35936 ft | 498 kts | 111° |
| 2026-04-30 04:20 | -38.56170 | 133.65773 | 35932 ft | 498 kts | 111° |
| 2026-04-30 04:21 | -38.58887 | 133.73907 | 35928 ft | 497 kts | 111° |
| 2026-04-30 04:21 | -38.61594 | 133.82050 | 35928 ft | 497 kts | 111° |
| 2026-04-30 04:22 | -38.64278 | 133.90135 | 35933 ft | 497 kts | 111° |
| 2026-04-30 04:22 | -38.66980 | 133.98281 | 35932 ft | 497 kts | 111° |
| 2026-04-30 04:23 | -38.69668 | 134.06435 | 35930 ft | 498 kts | 111° |
| 2026-04-30 04:23 | -38.72362 | 134.14608 | 35934 ft | 498 kts | 111° |
| 2026-04-30 04:24 | -38.75045 | 134.22782 | 35939 ft | 498 kts | 111° |
| 2026-04-30 04:24 | -38.77721 | 134.30957 | 35946 ft | 497 kts | 111° |
| 2026-04-30 04:25 | -38.80386 | 134.39132 | 35943 ft | 497 kts | 110° |
| 2026-04-30 04:25 | -38.83039 | 134.47311 | 35949 ft | 496 kts | 110° |
| 2026-04-30 04:26 | -38.85687 | 134.55491 | 35949 ft | 496 kts | 110° |
| 2026-04-30 04:26 | -38.88328 | 134.63613 | 35950 ft | 496 kts | 110° |
| 2026-04-30 04:27 | -38.90972 | 134.71787 | 35948 ft | 496 kts | 110° |
| 2026-04-30 04:27 | -38.93606 | 134.79972 | 35950 ft | 496 kts | 110° |
| 2026-04-30 04:28 | -38.96228 | 134.88170 | 35951 ft | 496 kts | 110° |
| 2026-04-30 04:28 | -38.98844 | 134.96367 | 35953 ft | 496 kts | 110° |
| 2026-04-30 04:29 | -39.01495 | 135.04551 | 35952 ft | 496 kts | 112° |
| 2026-04-30 04:29 | -39.04355 | 135.12649 | 35960 ft | 497 kts | 113° |
| 2026-04-30 04:30 | -39.07245 | 135.20661 | 35957 ft | 497 kts | 113° |
| 2026-04-30 04:30 | -39.10092 | 135.28767 | 35990 ft | 499 kts | 111° |
| 2026-04-30 04:31 | -39.12898 | 135.36903 | 35965 ft | 499 kts | 111° |
| 2026-04-30 04:31 | -39.15711 | 135.45075 | 35967 ft | 500 kts | 111° |
| 2026-04-30 04:32 | -39.18472 | 135.53067 | 35970 ft | 500 kts | 111° |
| 2026-04-30 04:32 | -39.21290 | 135.61259 | 35972 ft | 500 kts | 111° |
| 2026-04-30 04:33 | -39.24103 | 135.69452 | 35972 ft | 500 kts | 111° |
| 2026-04-30 04:33 | -39.26918 | 135.77670 | 35979 ft | 500 kts | 111° |
| 2026-04-30 04:34 | -39.29724 | 135.85875 | 35978 ft | 500 kts | 111° |
| 2026-04-30 04:34 | -39.32504 | 135.94043 | 35994 ft | 500 kts | 111° |
| 2026-04-30 04:34 | -39.33905 | 135.98171 | 36156 ft | 501 kts | 111° |
| 2026-04-30 04:35 | -39.35303 | 136.02295 | 36408 ft | 502 kts | 111° |
| 2026-04-30 04:35 | -39.36699 | 136.06421 | 36677 ft | 502 kts | 111° |
| 2026-04-30 04:35 | -39.38097 | 136.10557 | 36921 ft | 502 kts | 111° |
| 2026-04-30 04:36 | -39.40885 | 136.18834 | 36992 ft | 502 kts | 111° |
| 2026-04-30 04:36 | -39.43657 | 136.27047 | 36996 ft | 501 kts | 111° |
| 2026-04-30 04:37 | -39.46430 | 136.35324 | 37002 ft | 501 kts | 111° |
| 2026-04-30 04:37 | -39.49195 | 136.43602 | 36996 ft | 500 kts | 111° |
| 2026-04-30 04:38 | -39.51950 | 136.51869 | 36999 ft | 500 kts | 111° |
| 2026-04-30 04:38 | -39.54704 | 136.60141 | 37005 ft | 500 kts | 111° |
| 2026-04-30 04:39 | -39.57436 | 136.68361 | 37012 ft | 500 kts | 111° |
| 2026-04-30 04:39 | -39.60172 | 136.76639 | 37013 ft | 499 kts | 111° |
| 2026-04-30 04:40 | -39.62899 | 136.84916 | 37016 ft | 499 kts | 111° |
| 2026-04-30 04:40 | -39.65617 | 136.93200 | 37017 ft | 499 kts | 111° |
| 2026-04-30 04:41 | -39.68329 | 137.01491 | 37019 ft | 499 kts | 111° |
| 2026-04-30 04:41 | -39.71037 | 137.09781 | 37023 ft | 498 kts | 111° |
| 2026-04-30 04:42 | -39.73750 | 137.18068 | 37024 ft | 498 kts | 111° |
| 2026-04-30 04:42 | -39.76437 | 137.26313 | 37010 ft | 490 kts | 111° |
| 2026-04-30 04:43 | -39.79045 | 137.34384 | 37014 ft | 487 kts | 111° |
| 2026-04-30 04:43 | -39.81652 | 137.42491 | 37022 ft | 485 kts | 111° |
| 2026-04-30 04:44 | -39.84248 | 137.50559 | 37021 ft | 485 kts | 111° |
| 2026-04-30 04:44 | -39.86855 | 137.58670 | 37026 ft | 486 kts | 111° |
| 2026-04-30 04:45 | -39.89468 | 137.66787 | 37028 ft | 486 kts | 111° |
| 2026-04-30 04:45 | -39.92060 | 137.74920 | 37035 ft | 486 kts | 110° |
| 2026-04-30 04:46 | -39.94621 | 137.83007 | 37032 ft | 486 kts | 110° |
| 2026-04-30 04:46 | -39.97203 | 137.91154 | 37035 ft | 486 kts | 111° |
| 2026-04-30 04:47 | -39.99788 | 137.99302 | 37043 ft | 487 kts | 110° |
| 2026-04-30 04:47 | -40.02213 | 138.07641 | 37046 ft | 496 kts | 107° |
| 2026-04-30 04:48 | -40.04451 | 138.16197 | 37046 ft | 499 kts | 106° |
| 2026-04-30 04:48 | -40.06673 | 138.24785 | 37049 ft | 499 kts | 107° |
| 2026-04-30 04:49 | -40.08952 | 138.33336 | 37065 ft | 498 kts | 108° |
| 2026-04-30 04:49 | -40.11257 | 138.41849 | 37057 ft | 497 kts | 107° |
| 2026-04-30 04:50 | -40.13535 | 138.50371 | 37066 ft | 497 kts | 107° |
| 2026-04-30 04:50 | -40.15796 | 138.58895 | 37065 ft | 496 kts | 107° |
| 2026-04-30 04:51 | -40.18036 | 138.67364 | 37073 ft | 496 kts | 107° |
| 2026-04-30 04:51 | -40.20276 | 138.75888 | 37081 ft | 495 kts | 107° |
| 2026-04-30 04:52 | -40.22510 | 138.84418 | 37082 ft | 495 kts | 107° |
| 2026-04-30 04:52 | -40.24743 | 138.92921 | 37089 ft | 494 kts | 107° |
| 2026-04-30 04:53 | -40.26966 | 139.01422 | 37096 ft | 493 kts | 107° |
| 2026-04-30 04:53 | -40.29176 | 139.09915 | 37097 ft | 492 kts | 107° |
| 2026-04-30 04:54 | -40.31365 | 139.18400 | 37102 ft | 491 kts | 107° |
| 2026-04-30 04:54 | -40.33546 | 139.26867 | 37109 ft | 490 kts | 107° |
| 2026-04-30 04:55 | -40.35354 | 139.33904 | 37106 ft | 490 kts | 107° |
| 2026-04-30 04:55 | -40.37523 | 139.42367 | 37107 ft | 489 kts | 107° |
| 2026-04-30 04:56 | -40.39687 | 139.50816 | 37113 ft | 488 kts | 107° |
| 2026-04-30 04:56 | -40.41846 | 139.59258 | 37119 ft | 487 kts | 106° |
| 2026-04-30 04:57 | -40.43983 | 139.67684 | 37121 ft | 486 kts | 106° |
| 2026-04-30 04:57 | -40.46090 | 139.76047 | 37121 ft | 486 kts | 106° |
| 2026-04-30 04:58 | -40.48212 | 139.84473 | 37120 ft | 485 kts | 106° |
| 2026-04-30 04:58 | -40.50329 | 139.92877 | 37124 ft | 484 kts | 106° |
| 2026-04-30 04:59 | -40.52428 | 140.01258 | 37126 ft | 483 kts | 106° |
| 2026-04-30 04:59 | -40.54519 | 140.09651 | 37123 ft | 482 kts | 106° |
| 2026-04-30 05:00 | -40.56603 | 140.18027 | 37124 ft | 482 kts | 105° |
| 2026-04-30 05:00 | -40.58679 | 140.26415 | 37124 ft | 482 kts | 105° |
| 2026-04-30 05:01 | -40.60743 | 140.34805 | 37128 ft | 482 kts | 105° |
| 2026-04-30 05:01 | -40.62805 | 140.43190 | 37127 ft | 482 kts | 105° |
| 2026-04-30 05:02 | -40.64847 | 140.51542 | 37127 ft | 482 kts | 105° |
| 2026-04-30 05:02 | -40.66893 | 140.59934 | 37125 ft | 482 kts | 105° |
| 2026-04-30 05:03 | -40.68941 | 140.68340 | 37129 ft | 482 kts | 105° |
| 2026-04-30 05:03 | -40.70984 | 140.76742 | 37132 ft | 482 kts | 105° |
| 2026-04-30 05:04 | -40.73012 | 140.85153 | 37075 ft | 482 kts | 109° |
| 2026-04-30 05:04 | -40.75040 | 140.93600 | 37110 ft | 484 kts | 108° |
| 2026-04-30 05:05 | -40.77075 | 141.02073 | 37115 ft | 484 kts | 108° |
| 2026-04-30 05:05 | -40.79103 | 141.10553 | 37125 ft | 485 kts | 108° |
| 2026-04-30 05:06 | -40.82131 | 141.23291 | 37139 ft | 485 kts | 108° |
| 2026-04-30 05:06 | -40.84139 | 141.31795 | 37137 ft | 485 kts | 108° |
| 2026-04-30 05:07 | -40.86137 | 141.40293 | 37143 ft | 484 kts | 108° |
| 2026-04-30 05:07 | -40.88124 | 141.48739 | 37137 ft | 484 kts | 107° |
| 2026-04-30 05:08 | -40.90117 | 141.57242 | 37146 ft | 484 kts | 107° |
| 2026-04-30 05:08 | -40.92106 | 141.65754 | 37140 ft | 484 kts | 107° |
| 2026-04-30 05:09 | -40.94084 | 141.74262 | 37141 ft | 484 kts | 107° |
| 2026-04-30 05:09 | -40.96052 | 141.82775 | 37150 ft | 484 kts | 107° |
| 2026-04-30 05:10 | -40.98004 | 141.91297 | 37146 ft | 484 kts | 107° |
| 2026-04-30 05:10 | -41.00038 | 141.99776 | 37150 ft | 483 kts | 113° |
| 2026-04-30 05:11 | -41.03080 | 142.07762 | 37148 ft | 491 kts | 119° |
| 2026-04-30 05:11 | -41.06297 | 142.15884 | 37157 ft | 504 kts | 119° |
| 2026-04-30 05:12 | -41.09536 | 142.24140 | 37155 ft | 510 kts | 119° |
| 2026-04-30 05:12 | -41.12800 | 142.32499 | 37156 ft | 511 kts | 119° |
| 2026-04-30 05:13 | -41.16069 | 142.40873 | 37153 ft | 511 kts | 119° |
| 2026-04-30 05:13 | -41.19329 | 142.49244 | 37164 ft | 510 kts | 119° |
| 2026-04-30 05:14 | -41.22569 | 142.57587 | 37163 ft | 510 kts | 119° |
| 2026-04-30 05:14 | -41.25797 | 142.65938 | 37168 ft | 510 kts | 118° |
| 2026-04-30 05:15 | -41.29043 | 142.74324 | 37176 ft | 510 kts | 119° |
| 2026-04-30 05:15 | -41.32274 | 142.82712 | 37171 ft | 510 kts | 118° |
| 2026-04-30 05:16 | -41.35489 | 142.91103 | 37199 ft | 508 kts | 118° |
| 2026-04-30 05:16 | -41.38695 | 142.99459 | 37202 ft | 506 kts | 118° |
| 2026-04-30 05:17 | -41.41863 | 143.07744 | 37190 ft | 505 kts | 118° |
| 2026-04-30 05:17 | -41.45029 | 143.16072 | 37201 ft | 502 kts | 118° |
| 2026-04-30 05:18 | -41.48177 | 143.24360 | 37190 ft | 500 kts | 118° |
| 2026-04-30 05:18 | -41.51302 | 143.32622 | 37201 ft | 498 kts | 118° |
| 2026-04-30 05:19 | -41.54407 | 143.40827 | 37209 ft | 496 kts | 118° |
| 2026-04-30 05:19 | -41.57491 | 143.49015 | 37203 ft | 494 kts | 118° |
| 2026-04-30 05:20 | -41.60557 | 143.57207 | 37216 ft | 492 kts | 118° |
| 2026-04-30 05:20 | -41.63604 | 143.65357 | 37213 ft | 489 kts | 118° |
| 2026-04-30 05:21 | -41.66638 | 143.73490 | 37213 ft | 488 kts | 118° |
| 2026-04-30 05:21 | -41.69644 | 143.81537 | 37223 ft | 485 kts | 118° |
| 2026-04-30 05:22 | -41.72641 | 143.89607 | 37220 ft | 483 kts | 117° |
| 2026-04-30 05:22 | -41.75610 | 143.97655 | 37227 ft | 481 kts | 117° |
| 2026-04-30 05:23 | -41.78563 | 144.05666 | 37229 ft | 478 kts | 117° |
| 2026-04-30 05:23 | -41.81499 | 144.13644 | 37228 ft | 476 kts | 117° |
| 2026-04-30 05:24 | -41.84414 | 144.21582 | 37228 ft | 473 kts | 117° |
| 2026-04-30 05:24 | -41.87312 | 144.29494 | 37223 ft | 472 kts | 117° |
| 2026-04-30 05:25 | -41.90195 | 144.37385 | 37228 ft | 470 kts | 117° |
| 2026-04-30 05:25 | -41.93050 | 144.45257 | 37230 ft | 468 kts | 117° |
| 2026-04-30 05:26 | -41.95899 | 144.53098 | 37221 ft | 466 kts | 117° |
| 2026-04-30 05:26 | -41.98708 | 144.60869 | 37219 ft | 465 kts | 117° |
| 2026-04-30 05:27 | -42.01527 | 144.68679 | 37217 ft | 464 kts | 117° |
| 2026-04-30 05:27 | -42.04343 | 144.76483 | 37211 ft | 464 kts | 117° |
| 2026-04-30 05:28 | -42.07158 | 144.84297 | 37211 ft | 463 kts | 117° |
| 2026-04-30 05:28 | -42.09948 | 144.92110 | 37210 ft | 464 kts | 117° |
| 2026-04-30 05:29 | -42.12740 | 144.99947 | 37208 ft | 463 kts | 117° |
| 2026-04-30 05:29 | -42.15529 | 145.07772 | 37203 ft | 463 kts | 117° |
| 2026-04-30 05:30 | -42.18291 | 145.15577 | 37200 ft | 463 kts | 117° |
| 2026-04-30 05:30 | -42.21078 | 145.23439 | 37205 ft | 464 kts | 117° |
| 2026-04-30 05:31 | -42.23875 | 145.31349 | 37201 ft | 476 kts | 116° |
| 2026-04-30 05:31 | -42.25303 | 145.35396 | 36670 ft | 480 kts | 116° |
| 2026-04-30 05:31 | -42.26743 | 145.39484 | 36015 ft | 484 kts | 116° |
| 2026-04-30 05:32 | -42.28188 | 145.43606 | 35384 ft | 487 kts | 116° |
| 2026-04-30 05:32 | -42.29628 | 145.47723 | 34868 ft | 485 kts | 116° |
| 2026-04-30 05:32 | -42.31069 | 145.51844 | 34435 ft | 482 kts | 116° |
| 2026-04-30 05:32 | -42.32497 | 145.55924 | 33986 ft | 479 kts | 116° |
| 2026-04-30 05:33 | -42.33910 | 145.59979 | 33518 ft | 476 kts | 116° |
| 2026-04-30 05:33 | -42.35316 | 145.64021 | 33057 ft | 472 kts | 116° |
| 2026-04-30 05:33 | -42.36706 | 145.68018 | 32598 ft | 469 kts | 116° |
| 2026-04-30 05:33 | -42.38093 | 145.72011 | 32141 ft | 465 kts | 116° |
| 2026-04-30 05:34 | -42.39459 | 145.75942 | 31693 ft | 462 kts | 116° |
| 2026-04-30 05:34 | -42.40806 | 145.79807 | 31260 ft | 459 kts | 116° |
| 2026-04-30 05:34 | -42.42178 | 145.83753 | 30828 ft | 455 kts | 116° |
| 2026-04-30 05:34 | -42.43518 | 145.87626 | 30405 ft | 452 kts | 116° |
| 2026-04-30 05:35 | -42.44842 | 145.91464 | 29933 ft | 449 kts | 116° |
| 2026-04-30 05:35 | -42.46157 | 145.95290 | 29432 ft | 446 kts | 116° |
| 2026-04-30 05:35 | -42.47436 | 145.99017 | 28987 ft | 442 kts | 116° |
| 2026-04-30 05:35 | -42.48730 | 146.02787 | 28548 ft | 439 kts | 116° |
| 2026-04-30 05:36 | -42.50013 | 146.06529 | 28092 ft | 437 kts | 116° |
| 2026-04-30 05:36 | -42.51287 | 146.10251 | 27681 ft | 433 kts | 116° |
| 2026-04-30 05:36 | -42.52552 | 146.13943 | 27274 ft | 430 kts | 116° |
| 2026-04-30 05:36 | -42.53808 | 146.17609 | 26891 ft | 428 kts | 116° |
| 2026-04-30 05:37 | -42.55058 | 146.21264 | 26485 ft | 425 kts | 116° |
| 2026-04-30 05:37 | -42.56297 | 146.24895 | 26074 ft | 423 kts | 116° |
| 2026-04-30 05:37 | -42.57523 | 146.28498 | 25693 ft | 420 kts | 116° |
| 2026-04-30 05:37 | -42.58754 | 146.32113 | 25281 ft | 418 kts | 116° |
| 2026-04-30 05:38 | -42.59957 | 146.35650 | 24885 ft | 415 kts | 116° |
| 2026-04-30 05:38 | -42.61162 | 146.39198 | 24496 ft | 413 kts | 115° |
| 2026-04-30 05:38 | -42.62355 | 146.42725 | 24126 ft | 410 kts | 115° |
| 2026-04-30 05:38 | -42.63539 | 146.46236 | 23711 ft | 408 kts | 115° |
| 2026-04-30 05:39 | -42.64715 | 146.49729 | 23135 ft | 408 kts | 113° |
| 2026-04-30 05:39 | -42.65895 | 146.53225 | 22677 ft | 406 kts | 113° |
| 2026-04-30 05:39 | -42.67071 | 146.56710 | 22211 ft | 404 kts | 113° |
| 2026-04-30 05:39 | -42.68241 | 146.60174 | 21761 ft | 401 kts | 113° |
| 2026-04-30 05:40 | -42.69400 | 146.63613 | 21304 ft | 399 kts | 113° |
| 2026-04-30 05:40 | -42.70549 | 146.67028 | 20902 ft | 396 kts | 112° |
| 2026-04-30 05:40 | -42.71686 | 146.70426 | 20470 ft | 393 kts | 112° |
| 2026-04-30 05:40 | -42.72814 | 146.73800 | 19940 ft | 390 kts | 112° |
| 2026-04-30 05:41 | -42.73914 | 146.77087 | 19267 ft | 387 kts | 112° |
| 2026-04-30 05:41 | -42.75027 | 146.80415 | 18640 ft | 384 kts | 112° |
| 2026-04-30 05:41 | -42.76128 | 146.83706 | 17948 ft | 380 kts | 112° |
| 2026-04-30 05:41 | -42.77215 | 146.86961 | 17286 ft | 375 kts | 112° |
| 2026-04-30 05:42 | -42.78283 | 146.90168 | 16659 ft | 369 kts | 112° |
| 2026-04-30 05:42 | -42.79324 | 146.93299 | 16051 ft | 363 kts | 111° |
| 2026-04-30 05:42 | -42.80357 | 146.96413 | 15437 ft | 358 kts | 111° |
| 2026-04-30 05:42 | -42.81379 | 146.99496 | 14850 ft | 353 kts | 111° |
| 2026-04-30 05:43 | -42.82379 | 147.02513 | 14286 ft | 347 kts | 111° |
| 2026-04-30 05:43 | -42.83367 | 147.05499 | 13679 ft | 342 kts | 111° |
| 2026-04-30 05:43 | -42.84056 | 147.07578 | 13256 ft | 338 kts | 111° |
| 2026-04-30 05:43 | -42.85019 | 147.10488 | 12617 ft | 335 kts | 111° |
| 2026-04-30 05:44 | -42.85970 | 147.13370 | 12011 ft | 332 kts | 112° |
| 2026-04-30 05:44 | -42.86906 | 147.16212 | 11563 ft | 323 kts | 112° |
| 2026-04-30 05:44 | -42.87813 | 147.18972 | 11121 ft | 316 kts | 112° |
| 2026-04-30 05:44 | -42.87992 | 147.19517 | 11018 ft | 315 kts | 112° |
| 2026-04-30 05:45 | -42.88873 | 147.22195 | 10520 ft | 312 kts | 112° |
| 2026-04-30 05:45 | -42.89766 | 147.24917 | 9980 ft | 308 kts | 112° |
| 2026-04-30 05:45 | -42.90635 | 147.27572 | 9354 ft | 307 kts | 112° |
| 2026-04-30 05:45 | -42.91494 | 147.30194 | 8755 ft | 306 kts | 113° |
| 2026-04-30 05:46 | -42.92358 | 147.32836 | 8133 ft | 305 kts | 113° |
| 2026-04-30 05:46 | -42.93223 | 147.35481 | 7546 ft | 304 kts | 113° |
| 2026-04-30 05:46 | -42.94064 | 147.38054 | 7362 ft | 288 kts | 113° |
| 2026-04-30 05:46 | -42.94856 | 147.40481 | 7239 ft | 272 kts | 113° |
| 2026-04-30 05:47 | -42.95599 | 147.42755 | 7105 ft | 253 kts | 114° |
| 2026-04-30 05:47 | -42.96294 | 147.44875 | 7001 ft | 235 kts | 113° |
| 2026-04-30 05:47 | -42.96933 | 147.46834 | 6863 ft | 219 kts | 113° |
| 2026-04-30 05:47 | -42.97560 | 147.48765 | 6328 ft | 225 kts | 114° |
| 2026-04-30 05:48 | -42.98198 | 147.50729 | 5864 ft | 226 kts | 113° |
| 2026-04-30 05:48 | -42.98622 | 147.52031 | 5549 ft | 226 kts | 113° |
| 2026-04-30 05:48 | -42.99258 | 147.53987 | 5134 ft | 224 kts | 113° |
| 2026-04-30 05:48 | -42.99872 | 147.55939 | 4689 ft | 222 kts | 107° |
| 2026-04-30 05:49 | -42.99724 | 147.58562 | 4106 ft | 201 kts | 54° |
| 2026-04-30 05:49 | -42.99158 | 147.59511 | 3850 ft | 190 kts | 32° |
| 2026-04-30 05:49 | -42.98039 | 147.60226 | 3657 ft | 168 kts | 3° |
| 2026-04-30 05:49 | -42.96980 | 147.60182 | 3531 ft | 136 kts | 342° |
| 2026-04-30 05:50 | -42.96109 | 147.59913 | 3260 ft | 123 kts | 342° |
| 2026-04-30 05:50 | -42.95280 | 147.59663 | 2852 ft | 122 kts | 343° |
| 2026-04-30 05:50 | -42.94454 | 147.59412 | 2460 ft | 121 kts | 344° |
| 2026-04-30 05:50 | -42.93643 | 147.59166 | 2280 ft | 120 kts | 344° |
| 2026-04-30 05:51 | -42.92838 | 147.58918 | 2103 ft | 122 kts | 345° |
| 2026-04-30 05:51 | -42.92011 | 147.58663 | 1917 ft | 120 kts | 347° |
| 2026-04-30 05:51 | -42.91198 | 147.58413 | 1730 ft | 120 kts | 346° |
| 2026-04-30 05:51 | -42.90377 | 147.58154 | 1541 ft | 123 kts | 344° |
| 2026-04-30 05:52 | -42.89560 | 147.57771 | 1363 ft | 123 kts | 337° |
| 2026-04-30 05:52 | -42.88802 | 147.57284 | 1157 ft | 121 kts | 336° |
| 2026-04-30 05:52 | -42.88064 | 147.56777 | 972 ft | 120 kts | 336° |
| 2026-04-30 05:52 | -42.87334 | 147.56191 | 768 ft | 122 kts | 330° |
| 2026-04-30 05:53 | -42.86693 | 147.55414 | 562 ft | 125 kts | 315° |
| 2026-04-30 05:53 | -42.86115 | 147.54591 | 388 ft | 123 kts | 321° |
| 2026-04-30 05:53 | -42.85519 | 147.53788 | 304 ft | 125 kts | 316° |
| 2026-04-30 05:53 | -42.84950 | 147.52970 | 168 ft | 119 kts | 322° |
| 2026-04-30 05:54 | -42.84359 | 147.52180 | 29 ft | 118 kts | 319° |
| 2026-04-30 05:54 | -42.83853 | 147.51508 | 23 ft | 79 kts | 314° |
| 2026-04-30 05:54 | -42.83588 | 147.51143 | 24 ft | 39 kts | 315° |
| 2026-04-30 05:54 | -42.83379 | 147.50858 | 22 ft | 43 kts | 315° |
| 2026-04-30 05:55 | -42.83374 | 147.50566 | 24 ft | 31 kts | 220° |
| 2026-04-30 05:55 | -42.83518 | 147.50679 | 23 ft | 26 kts | 143° |
| 2026-04-30 05:55 | -42.83637 | 147.50666 | 22 ft | 14 kts | 167° |
| 2026-04-30 05:55 | -42.83669 | 147.50642 | 22 ft | 2 kts | 228° |
| 2026-04-30 05:56 | -42.83685 | 147.50621 | 22 ft | 1 kts | 225° |
| 2026-04-30 05:56 | -42.83691 | 147.50614 | 23 ft | 0 kts | 225° |